This is the latest recevied weather packets stored in our database for station/object S54L-12. If no packets are shown the sender has not sent any weather packets the latest 10 day(s).
| Time | Temp. | Humidity | Pressure | Rain* | Wind** | Luminosity | Snow |
|---|---|---|---|---|---|---|---|
| 1777338783 | 6.67° C | 73% | 923.5 hPa | - | - | - | - |
| 1777337883 | 6.67° C | 72% | 923.5 hPa | - | - | - | - |
| 1777336983 | 6.67° C | 72% | 923.3 hPa | - | - | - | - |
| 1777336083 | 7.22° C | 71% | 923.6 hPa | - | - | - | - |
| 1777335183 | 7.22° C | 70% | 923.6 hPa | - | - | - | - |
| 1777334283 | 7.22° C | 70% | 923.7 hPa | - | - | - | - |
| 1777333383 | 7.22° C | 70% | 923.6 hPa | - | - | - | - |
| 1777332483 | 7.22° C | 69% | 923.8 hPa | - | - | - | - |
| 1777331583 | 7.78° C | 67% | 923.8 hPa | - | - | - | - |
| 1777330683 | 8.33° C | 66% | 923.7 hPa | - | - | - | - |
| 1777328883 | 8.33° C | 65% | 923.8 hPa | - | - | - | - |
| 1777327982 | 8.33° C | 66% | 923.9 hPa | - | - | - | - |
| 1777327082 | 8.33° C | 66% | 923.9 hPa | - | - | - | - |
| 1777326182 | 7.78° C | 68% | 924 hPa | - | - | - | - |
| 1777325282 | 7.78° C | 67% | 924.1 hPa | - | - | - | - |
| 1777324382 | 7.78° C | 66% | 924.1 hPa | - | - | - | - |
| 1777323482 | 8.33° C | 64% | 924.1 hPa | - | - | - | - |
| 1777322582 | 8.89° C | 63% | 924 hPa | - | - | - | - |
| 1777321682 | 9.44° C | 61% | 924 hPa | - | - | - | - |
| 1777320782 | 9.44° C | 60% | 923.9 hPa | - | - | - | - |
| 1777319882 | 9.44° C | 59% | 923.9 hPa | - | - | - | - |
| 1777318982 | 9.44° C | 60% | 923.9 hPa | - | - | - | - |
| 1777318082 | 10° C | 59% | 923.8 hPa | - | - | - | - |
| 1777317182 | 10.56° C | 56% | 923.8 hPa | - | - | - | - |
| 1777316282 | 11.67° C | 53% | 923.7 hPa | - | - | - | - |
* Rain since midnight (hover to see other rain measurements)
** Current wind speed in m/s (hover to see current wind gust speed)